• Join FlightAware (Why Join?)
  • Login
  • US Flag 
06:45AM EDT


 

Airport Tracker/Info


-or-


 

Live Flight TrackerFlight Track Log ✈ LXJ524 ✈ 05-Jun-2014 ✈ KADS - KSDL

Flight Track Log - Related Links

Times and Time Zones

All times are in EDT time to prevent confusion due to time zone crossing. See the LXJ524 flight status page for this flight to view local times or setup timezone preferences in your user account.

Time Position Orientation Groundspeed Altitude Reporting Facility
EDT Latitude Longitude Course Direction KTS MPH feet Rate Location/Type
02:30PM 32.9833 -96.7667 258° West 226 260 4,900  Level Dallas / Fort Worth TRACON
02:31PM 33.0161 -96.7481 25° Northeast 234 269 7,300 2,700 Climbing Fort Worth Center
02:32PM 33.0894 -96.7617 351° North 286 329 9,700 1,860 Climbing Fort Worth Center
02:33PM 33.0811 -96.8586 264° West 310 357 11,200 1,680 Climbing Fort Worth Center
02:34PM 33.0481 -96.9633 249° West 332 382 13,200 2,400 Climbing Fort Worth Center
02:35PM 32.7583 -97.5296 258° West  Level FlightAware Approximate
02:35PM 33.0122 -97.0806 250° West 346 398 16,300  Level Fort Worth Center
02:36PM 32.9761 -97.1981 250° West 379 436 17,800 1,680 Climbing Fort Worth Center
02:37PM 32.9331 -97.3347 249° West 408 470 19,800 1,980 Climbing Fort Worth Center
02:38PM 32.8944 -97.4622 250° West 409 471 22,000 2,100 Climbing Fort Worth Center
02:39PM 32.8553 -97.5881 250° West 406 467 24,200 2,100 Climbing Fort Worth Center
02:40PM 32.8147 -97.7150 249° West 412 474 26,400 2,100 Climbing Fort Worth Center
02:41PM 32.7742 -97.8419 249° West 412 474 28,600 2,100 Climbing Fort Worth Center
02:42PM 32.7356 -97.9689 250° West 412 474 30,800 2,280 Climbing Fort Worth Center
02:43PM 32.7136 -98.1264 261° West 404 465 33,400 2,280 Climbing Fort Worth Center
02:44PM 32.6944 -98.2553 260° West 403 464 35,600 1,200 Climbing Fort Worth Center
02:45PM 32.6778 -98.3872 262° West 405 466 36,000 180 Climbing Fort Worth Center
02:46PM 32.6686 -98.5419 266° West 435 501 36,000 480 Level Fort Worth Center
02:47PM 32.6597 -98.6869 266° West 441 507 37,000 1,140 Climbing Fort Worth Center
02:48PM 32.6503 -98.8261 265° West 425 489 38,400 1,080 Climbing Fort Worth Center
02:49PM 32.6411 -98.9667 266° West 426 490 39,300 840 Climbing Fort Worth Center
02:50PM 32.6314 -99.1083 265° West 428 493 40,200 840 Climbing Fort Worth Center
02:51PM 32.6225 -99.2497 266° West 429 494 41,100 960 Climbing Fort Worth Center
02:52PM 32.6103 -99.4167 265° West 428 493 42,200 900 Climbing Fort Worth Center
02:53PM 32.6006 -99.5536 265° West 420 483 43,000 360 Climbing Fort Worth Center
02:54PM 32.5903 -99.6928 265° West 420 483 43,000  Level Fort Worth Center
02:55PM 32.5817 -99.8292 266° West 421 484 43,000  Level Fort Worth Center
02:56PM 32.5694 -99.9803 265° West 432 497 43,000  Level Fort Worth Center
02:58PM 32.5594 -100.1219 265° West 431 496 43,000  Level Fort Worth Center
02:59PM 32.5500 -100.2617 265° West 429 494 43,000  Level Fort Worth Center
03:00PM 32.5389 -100.4022 265° West 427 491 43,000  Level Fort Worth Center
03:01PM 32.5289 -100.5697 266° West 424 488 43,000  Level Fort Worth Center
03:02PM 32.5175 -100.7089 264° West 423 487 43,000  Level Fort Worth Center
03:03PM 32.5075 -100.8467 265° West 422 486 43,000  Level Fort Worth Center
03:04PM 32.4961 -100.9819 264° West 413 475 43,000  Level Fort Worth Center
03:05PM 32.4844 -101.1164 264° West 411 473 43,000  Level Fort Worth Center
03:06PM 32.4753 -101.2522 265° West 412 474 43,000  Level Fort Worth Center
03:07PM 32.4606 -101.3967 263° West 410 472 43,000  Level Fort Worth Center
03:08PM 32.4492 -101.5306 264° West 408 470 43,000  Level Fort Worth Center
03:09PM 32.4383 -101.6644 265° West 410 472 43,000  Level Fort Worth Center
03:10PM 32.4239 -101.8239 264° West 405 466 43,000  Level Fort Worth Center
03:11PM 32.4111 -101.9556 263° West 404 465 43,000  Level Fort Worth Center
03:12PM 32.3992 -102.0886 264° West 406 467 43,000  Level Fort Worth Center
03:13PM 32.3858 -102.2219 263° West 405 466 43,000  Level Fort Worth Center
03:14PM 32.3725 -102.3569 263° West 408 470 43,000  Level Fort Worth Center
03:15PM 32.3589 -102.4933 263° West 408 470 43,000  Level Fort Worth Center
03:16PM 32.3489 -102.6283 265° West 408 470 43,000  Level Fort Worth Center
03:17PM 32.3367 -102.7631 264° West 408 470 43,000  Level Fort Worth Center
03:18PM 32.3217 -102.9219 264° West 408 470 43,000  Level Fort Worth Center
03:19PM 32.3081 -103.0558 263° West 408 470 43,000  Level Fort Worth Center
03:20PM 32.2950 -103.1892 263° West 408 470 43,000  Level Fort Worth Center
03:21PM 32.2817 -103.3233 263° West 409 471 43,000  Level Fort Worth Center
03:22PM 32.2675 -103.4569 263° West 409 471 43,000  Level Fort Worth Center
03:23PM 32.2547 -103.5900 264° West 409 471 43,000  Level Fort Worth Center
03:24PM 32.2433 -103.6969 263° West 409 471 43,000  Level Albuquerque Center
03:25PM 32.2303 -103.8314 263° West 410 472 43,000  Level Albuquerque Center
03:26PM 32.2147 -103.9639 262° West 410 472 43,000  Level Albuquerque Center
03:27PM 32.2008 -104.0978 263° West 410 472 43,000  Level Albuquerque Center
03:28PM 32.2053 -104.2317 272° West 410 472 43,000  Level Albuquerque Center
03:29PM 32.2108 -104.3672 273° West 410 472 43,000  Level Albuquerque Center
03:30PM 32.2117 -104.5008 270° West 410 472 43,000  Level Albuquerque Center
03:31PM 32.2192 -104.6628 273° West 410 472 43,000 -60 Level Albuquerque Center
03:32PM 32.2189 -104.7881 270° West 411 473 42,900  Descending Albuquerque Center
03:33PM 32.2239 -104.9211 273° West 410 472 43,000  Climbing Albuquerque Center
03:34PM 32.2297 -105.0836 272° West 411 473 43,000  Level Albuquerque Center
03:35PM 32.2347 -105.2175 273° West 412 474 43,000  Level Albuquerque Center
03:36PM 32.2378 -105.3489 272° West 412 474 43,000  Level Albuquerque Center
03:37PM 32.2414 -105.4828 272° West 411 473 43,000  Level Albuquerque Center
03:38PM 32.2436 -105.6322 271° West 408 470 43,000  Level Albuquerque Center
03:40PM 32.2467 -105.7647 272° West 403 464 43,000  Level Albuquerque Center
03:41PM 32.2494 -105.9075 271° West 407 468 43,000  Level Albuquerque Center
03:42PM 32.2528 -106.0392 272° West 405 466 43,000  Level Albuquerque Center
03:43PM 32.2556 -106.1806 271° West 403 464 43,000  Level Albuquerque Center
03:44PM 32.2581 -106.3025 271° West 402 463 43,000  Level Albuquerque Center
03:45PM 32.2603 -106.4347 271° West 402 463 43,000  Level Albuquerque Center
03:46PM 32.2619 -106.5658 271° West 401 461 43,000  Level Albuquerque Center
03:47PM 32.2639 -106.6983 271° West 401 461 43,000  Level Albuquerque Center
03:48PM 32.2656 -106.8308 271° West 402 463 43,000  Level Albuquerque Center
03:49PM 32.2678 -106.9883 271° West 402 463 43,000  Level Albuquerque Center
03:50PM 32.2692 -107.1303 271° West 402 463 43,000  Level Albuquerque Center
03:51PM 32.2683 -107.2531 270° West 403 464 43,000  Level Albuquerque Center
03:52PM 32.2681 -107.3858 270° West 404 465 43,000  Level Albuquerque Center
03:53PM 32.2697 -107.5258 271° West 404 465 43,000  Level Albuquerque Center
03:54PM 32.2694 -107.6581 270° West 404 465 43,000  Level Albuquerque Center
03:55PM 32.2700 -107.7922 270° West 404 465 43,000  Level Albuquerque Center
03:56PM 32.2714 -107.9236 271° West 404 465 43,000  Level Albuquerque Center
03:57PM 32.2708 -108.0561 270° West 404 465 43,000  Level Albuquerque Center
03:58PM 32.2711 -108.2153 270° West 404 465 43,000  Level Albuquerque Center
03:59PM 32.2719 -108.3481 270° West 404 465 43,000  Level Albuquerque Center
04:00PM 32.2714 -108.4722 270° West 404 465 43,000  Level Albuquerque Center
04:01PM 32.2719 -108.6044 270° West 404 465 43,000 -540 Level Albuquerque Center
04:02PM 32.2714 -108.7353 270° West 402 463 41,900 -1,380 Descending Albuquerque Center
04:03PM 32.2694 -108.8889 269° West 395 455 40,200 -1,680 Descending Albuquerque Center
04:04PM 32.2700 -109.0189 270° West 395 455 38,600 -1,500 Descending Albuquerque Center
04:05PM 32.2689 -109.1514 269° West 396 456 37,100 -1,500 Descending Albuquerque Center
04:06PM 32.2733 -109.2858 272° West 405 466 35,600 -1,500 Descending Albuquerque Center
04:07PM 32.3064 -109.4164 287° West 417 480 34,100 -1,620 Descending Albuquerque Center
04:08PM 32.3369 -109.5497 285° West 417 480 32,300 -1,800 Descending Albuquerque Center
04:09PM 32.3703 -109.6847 286° West 421 484 30,400 -1,200 Descending Albuquerque Center
04:10PM 32.4028 -109.8211 286° West 429 494 29,900 -1,320 Descending Albuquerque Center
04:11PM 32.4431 -109.9789 287° West 447 514 27,700 -2,040 Descending Albuquerque Center
04:12PM 32.4797 -110.1333 286° West 447 514 25,700 -1,860 Descending Albuquerque Center
04:13PM 32.5125 -110.2703 286° West 439 505 24,000 -840 Descending Albuquerque Center
04:14PM 32.5411 -110.3897 286° West 425 489 24,000  Level Albuquerque Center
04:16PM 32.5778 -110.5394 286° West 399 459 24,000 -660 Level Albuquerque Center
04:17PM 32.6328 -110.6461 301° West 384 442 22,700 -1,620 Descending Albuquerque Center
04:18PM 32.6856 -110.7547 300° West 382 440 20,700 -1,920 Descending Albuquerque Center
04:19PM 32.7369 -110.8594 300° West 372 428 18,800 -1,860 Descending Albuquerque Center
04:20PM 32.7878 -110.9625 300° West 367 422 16,900 -1,860 Descending Albuquerque Center
04:21PM 32.8367 -111.0647 300° West 361 415 15,000 -1,860 Descending Albuquerque Center
04:22PM 32.8858 -111.1642 301° West 356 410 13,200 -1,740 Descending Albuquerque Center
04:23PM 32.9331 -111.2606 300° West 339 390 11,500 -1,800 Descending Albuquerque Center
04:24PM 32.9867 -111.3683 301° West 316 364 9,500 -1,560 Descending Albuquerque Center
04:25PM 33.0328 -111.4419 307° West 282 325 8,400 -1,260 Descending Albuquerque Center
04:26PM 33.0686 -111.5233 298° West 276 318 7,000 -780 Descending Albuquerque Center
04:27PM 33.0967 -111.6111 291° West 282 325 6,900 -300 Descending Albuquerque Center
04:28PM 33.1258 -111.6997 291° West 288 331 6,400 -480 Descending Albuquerque Center
04:29PM 33.1569 -111.7847 294° West 282 325 6,000 -300 Descending Albuquerque Center
04:30PM 33.1942 -111.8653 299° West 281 323 5,900  Descending Albuquerque Center
04:31PM 33.2492 -111.9333 314° West 283 326 6,000  Climbing Albuquerque Center
04:32PM 33.3169 -112.0142 315° West 283 326 5,900 -300 Descending Albuquerque Center
04:33PM 33.3969 -112.0017 North 284 327 5,400 -600 Descending Albuquerque Center
04:33PM 33.4333 -111.9833 23° Northeast 278 320 5,000 -420 Descending Phoenix TRACON
04:34PM 33.5167 -111.9667 North 273 314 4,800 -600 Descending Phoenix TRACON
04:35PM 33.5667 -111.9167 40° Northeast 260 299 3,900 -840 Descending Phoenix TRACON
04:36PM 33.6167 -111.8833 29° Northeast 190 219 3,200 -840 Descending Phoenix TRACON
04:37PM 33.6328 -111.8686 37° Northeast 163 188 2,500 -1,020 Descending Albuquerque Center
04:38PM 33.6275 -111.9061 260° West 147 169 1,500 -1,020 Descending Albuquerque Center